sensor_id;sensor_type;location;lat;lon;timestamp;temperature;humidity
2447;DHT22;26430;48.818;9.244;2023-08-12T00:01:43;21.30;99.90
2447;DHT22;26430;48.818;9.244;2023-08-12T00:04:08;21.30;99.90
2447;DHT22;26430;48.818;9.244;2023-08-12T00:06:34;21.30;99.90
2447;DHT22;26430;48.818;9.244;2023-08-12T00:09:00;21.20;99.90
2447;DHT22;26430;48.818;9.244;2023-08-12T00:11:25;21.20;99.90
2447;DHT22;26430;48.818;9.244;2023-08-12T00:13:51;21.20;99.90
2447;DHT22;26430;48.818;9.244;2023-08-12T00:16:16;21.20;99.90
2447;DHT22;26430;48.818;9.244;2023-08-12T00:18:42;21.20;99.90
2447;DHT22;26430;48.818;9.244;2023-08-12T00:21:08;21.20;99.90
2447;DHT22;26430;48.818;9.244;2023-08-12T00:23:39;21.10;99.90
2447;DHT22;26430;48.818;9.244;2023-08-12T00:26:09;21.10;99.90
2447;DHT22;26430;48.818;9.244;2023-08-12T00:28:36;21.10;99.90
2447;DHT22;26430;48.818;9.244;2023-08-12T00:31:01;21.20;99.90
2447;DHT22;26430;48.818;9.244;2023-08-12T00:33:27;21.20;99.90
2447;DHT22;26430;48.818;9.244;2023-08-12T00:35:52;21.10;99.90
2447;DHT22;26430;48.818;9.244;2023-08-12T00:38:18;21.10;99.90
2447;DHT22;26430;48.818;9.244;2023-08-12T00:40:44;21.10;99.90
2447;DHT22;26430;48.818;9.244;2023-08-12T00:43:09;21.20;99.90
2447;DHT22;26430;48.818;9.244;2023-08-12T00:45:35;21.10;99.90
2447;DHT22;26430;48.818;9.244;2023-08-12T00:48:02;21.10;99.90
2447;DHT22;26430;48.818;9.244;2023-08-12T00:50:28;21.00;99.90
2447;DHT22;26430;48.818;9.244;2023-08-12T00:52:54;21.00;99.90
2447;DHT22;26430;48.818;9.244;2023-08-12T00:55:20;20.90;99.90
2447;DHT22;26430;48.818;9.244;2023-08-12T00:57:46;20.90;99.90
2447;DHT22;26430;48.818;9.244;2023-08-12T01:00:13;20.90;99.90
2447;DHT22;26430;48.818;9.244;2023-08-12T01:02:38;20.80;99.90
2447;DHT22;26430;48.818;9.244;2023-08-12T01:05:04;20.80;99.90
2447;DHT22;26430;48.818;9.244;2023-08-12T01:07:30;20.70;99.90
2447;DHT22;26430;48.818;9.244;2023-08-12T01:09:56;20.70;99.90
2447;DHT22;26430;48.818;9.244;2023-08-12T01:15:04;20.60;99.90
2447;DHT22;26430;48.818;9.244;2023-08-12T01:17:32;20.60;99.90
2447;DHT22;26430;48.818;9.244;2023-08-12T01:20:00;20.60;99.90
2447;DHT22;26430;48.818;9.244;2023-08-12T01:22:27;20.60;99.90
2447;DHT22;26430;48.818;9.244;2023-08-12T01:24:55;20.60;99.90
2447;DHT22;26430;48.818;9.244;2023-08-12T01:27:20;20.70;99.90
2447;DHT22;26430;48.818;9.244;2023-08-12T01:29:48;20.60;99.90
2447;DHT22;26430;48.818;9.244;2023-08-12T01:34:55;20.70;99.90
2447;DHT22;26430;48.818;9.244;2023-08-12T01:37:29;20.60;99.90
2447;DHT22;26430;48.818;9.244;2023-08-12T01:39:55;20.70;99.90
2447;DHT22;26430;48.818;9.244;2023-08-12T01:42:23;20.70;99.90
2447;DHT22;26430;48.818;9.244;2023-08-12T01:44:49;20.50;99.90
2447;DHT22;26430;48.818;9.244;2023-08-12T01:47:15;20.50;99.90
2447;DHT22;26430;48.818;9.244;2023-08-12T01:49:41;20.50;99.90
2447;DHT22;26430;48.818;9.244;2023-08-12T01:52:06;20.40;99.90
2447;DHT22;26430;48.818;9.244;2023-08-12T01:54:32;20.50;99.90
2447;DHT22;26430;48.818;9.244;2023-08-12T01:57:03;20.50;99.90
2447;DHT22;26430;48.818;9.244;2023-08-12T01:59:31;20.50;99.90
2447;DHT22;26430;48.818;9.244;2023-08-12T02:01:57;20.50;99.90
2447;DHT22;26430;48.818;9.244;2023-08-12T02:04:23;20.60;99.90
2447;DHT22;26430;48.818;9.244;2023-08-12T02:06:48;20.60;99.90
2447;DHT22;26430;48.818;9.244;2023-08-12T02:09:15;20.60;99.90
2447;DHT22;26430;48.818;9.244;2023-08-12T02:11:40;20.60;99.90
2447;DHT22;26430;48.818;9.244;2023-08-12T02:14:06;20.50;99.90
2447;DHT22;26430;48.818;9.244;2023-08-12T02:16:32;20.50;99.90
2447;DHT22;26430;48.818;9.244;2023-08-12T02:18:57;20.40;99.90
2447;DHT22;26430;48.818;9.244;2023-08-12T02:21:23;20.40;99.90
2447;DHT22;26430;48.818;9.244;2023-08-12T02:23:48;20.40;99.90
2447;DHT22;26430;48.818;9.244;2023-08-12T02:26:14;20.40;99.90
2447;DHT22;26430;48.818;9.244;2023-08-12T02:28:39;20.40;99.90
2447;DHT22;26430;48.818;9.244;2023-08-12T02:31:05;20.40;99.90
2447;DHT22;26430;48.818;9.244;2023-08-12T02:33:31;20.40;99.90
2447;DHT22;26430;48.818;9.244;2023-08-12T02:35:56;20.50;99.90
2447;DHT22;26430;48.818;9.244;2023-08-12T02:38:22;20.60;99.90
2447;DHT22;26430;48.818;9.244;2023-08-12T02:40:48;20.80;99.90
2447;DHT22;26430;48.818;9.244;2023-08-12T02:43:15;20.80;99.90
2447;DHT22;26430;48.818;9.244;2023-08-12T02:45:40;20.80;99.90
2447;DHT22;26430;48.818;9.244;2023-08-12T02:48:06;20.80;99.90
2447;DHT22;26430;48.818;9.244;2023-08-12T02:50:32;20.90;99.90
2447;DHT22;26430;48.818;9.244;2023-08-12T02:52:57;20.80;99.90
2447;DHT22;26430;48.818;9.244;2023-08-12T02:55:23;21.00;99.90
2447;DHT22;26430;48.818;9.244;2023-08-12T02:57:48;21.10;99.90
2447;DHT22;26430;48.818;9.244;2023-08-12T03:00:14;21.10;99.90
2447;DHT22;26430;48.818;9.244;2023-08-12T03:02:43;21.10;99.90
2447;DHT22;26430;48.818;9.244;2023-08-12T03:05:09;21.30;99.90
2447;DHT22;26430;48.818;9.244;2023-08-12T03:07:34;21.30;99.90
2447;DHT22;26430;48.818;9.244;2023-08-12T03:10:00;21.30;99.90
2447;DHT22;26430;48.818;9.244;2023-08-12T03:12:25;21.40;99.90
2447;DHT22;26430;48.818;9.244;2023-08-12T03:14:51;21.40;99.90
2447;DHT22;26430;48.818;9.244;2023-08-12T03:17:16;21.10;99.90
2447;DHT22;26430;48.818;9.244;2023-08-12T03:19:42;21.10;99.90
2447;DHT22;26430;48.818;9.244;2023-08-12T03:22:08;21.10;99.90
2447;DHT22;26430;48.818;9.244;2023-08-12T03:24:33;21.00;99.90
2447;DHT22;26430;48.818;9.244;2023-08-12T03:26:59;21.00;99.90
2447;DHT22;26430;48.818;9.244;2023-08-12T03:29:25;21.00;99.90
2447;DHT22;26430;48.818;9.244;2023-08-12T03:31:50;21.10;99.90
2447;DHT22;26430;48.818;9.244;2023-08-12T03:34:16;21.20;99.90
2447;DHT22;26430;48.818;9.244;2023-08-12T03:36:42;21.10;99.90
2447;DHT22;26430;48.818;9.244;2023-08-12T03:39:07;21.00;99.90
2447;DHT22;26430;48.818;9.244;2023-08-12T03:41:33;20.90;99.90
2447;DHT22;26430;48.818;9.244;2023-08-12T03:43:59;20.90;99.90
2447;DHT22;26430;48.818;9.244;2023-08-12T03:46:24;20.70;99.90
2447;DHT22;26430;48.818;9.244;2023-08-12T03:48:50;20.60;99.90
2447;DHT22;26430;48.818;9.244;2023-08-12T03:51:15;20.60;99.90
2447;DHT22;26430;48.818;9.244;2023-08-12T03:53:41;20.60;99.90
2447;DHT22;26430;48.818;9.244;2023-08-12T03:56:06;20.70;99.90
2447;DHT22;26430;48.818;9.244;2023-08-12T03:58:32;20.80;99.90
2447;DHT22;26430;48.818;9.244;2023-08-12T04:00:57;21.00;99.90
2447;DHT22;26430;48.818;9.244;2023-08-12T04:03:23;21.30;99.90
2447;DHT22;26430;48.818;9.244;2023-08-12T04:05:50;21.50;99.90
2447;DHT22;26430;48.818;9.244;2023-08-12T04:08:18;21.60;99.90
2447;DHT22;26430;48.818;9.244;2023-08-12T04:10:45;21.60;99.90
2447;DHT22;26430;48.818;9.244;2023-08-12T04:13:11;21.50;99.90
2447;DHT22;26430;48.818;9.244;2023-08-12T04:15:37;21.50;99.90
2447;DHT22;26430;48.818;9.244;2023-08-12T04:18:02;21.20;99.90
2447;DHT22;26430;48.818;9.244;2023-08-12T04:20:28;21.10;99.90
2447;DHT22;26430;48.818;9.244;2023-08-12T04:22:53;20.80;99.90
2447;DHT22;26430;48.818;9.244;2023-08-12T04:25:19;20.80;99.90
2447;DHT22;26430;48.818;9.244;2023-08-12T04:27:45;20.70;99.90
2447;DHT22;26430;48.818;9.244;2023-08-12T04:30:12;21.00;99.90
2447;DHT22;26430;48.818;9.244;2023-08-12T04:32:39;21.30;99.90
2447;DHT22;26430;48.818;9.244;2023-08-12T04:35:05;21.40;99.90
2447;DHT22;26430;48.818;9.244;2023-08-12T04:37:30;21.40;99.90
2447;DHT22;26430;48.818;9.244;2023-08-12T04:39:57;21.20;99.90
2447;DHT22;26430;48.818;9.244;2023-08-12T04:42:23;21.30;99.90
2447;DHT22;26430;48.818;9.244;2023-08-12T04:44:49;21.40;99.90
2447;DHT22;26430;48.818;9.244;2023-08-12T04:47:15;21.50;99.90
2447;DHT22;26430;48.818;9.244;2023-08-12T04:49:41;21.30;99.90
2447;DHT22;26430;48.818;9.244;2023-08-12T04:52:06;21.00;99.90
2447;DHT22;26430;48.818;9.244;2023-08-12T04:54:32;20.90;99.90
2447;DHT22;26430;48.818;9.244;2023-08-12T04:56:58;20.70;99.90
2447;DHT22;26430;48.818;9.244;2023-08-12T04:59:24;20.60;99.90
2447;DHT22;26430;48.818;9.244;2023-08-12T05:01:50;20.60;99.90
2447;DHT22;26430;48.818;9.244;2023-08-12T05:04:16;20.80;99.90
2447;DHT22;26430;48.818;9.244;2023-08-12T05:06:41;21.00;99.90
2447;DHT22;26430;48.818;9.244;2023-08-12T05:09:07;21.00;99.90
2447;DHT22;26430;48.818;9.244;2023-08-12T05:11:33;21.00;99.90
2447;DHT22;26430;48.818;9.244;2023-08-12T05:13:59;20.80;99.90
2447;DHT22;26430;48.818;9.244;2023-08-12T05:16:24;20.60;99.90
2447;DHT22;26430;48.818;9.244;2023-08-12T05:18:50;20.60;99.90
2447;DHT22;26430;48.818;9.244;2023-08-12T05:21:16;20.80;99.90
2447;DHT22;26430;48.818;9.244;2023-08-12T05:23:41;21.10;99.90
2447;DHT22;26430;48.818;9.244;2023-08-12T05:26:07;21.10;99.90
2447;DHT22;26430;48.818;9.244;2023-08-12T05:28:33;21.10;99.90
2447;DHT22;26430;48.818;9.244;2023-08-12T05:30:58;21.10;99.90
2447;DHT22;26430;48.818;9.244;2023-08-12T05:33:24;21.10;99.90
2447;DHT22;26430;48.818;9.244;2023-08-12T05:35:49;21.00;99.90
2447;DHT22;26430;48.818;9.244;2023-08-12T05:38:16;21.10;99.90
2447;DHT22;26430;48.818;9.244;2023-08-12T05:40:41;21.30;99.90
2447;DHT22;26430;48.818;9.244;2023-08-12T05:43:07;21.30;99.90
2447;DHT22;26430;48.818;9.244;2023-08-12T05:45:32;21.00;99.90
2447;DHT22;26430;48.818;9.244;2023-08-12T05:47:58;21.00;99.90
2447;DHT22;26430;48.818;9.244;2023-08-12T05:50:23;20.80;99.90
2447;DHT22;26430;48.818;9.244;2023-08-12T05:52:49;20.90;99.90
2447;DHT22;26430;48.818;9.244;2023-08-12T05:55:15;20.80;99.90
2447;DHT22;26430;48.818;9.244;2023-08-12T05:57:40;20.90;99.90
2447;DHT22;26430;48.818;9.244;2023-08-12T06:00:06;21.00;99.90
2447;DHT22;26430;48.818;9.244;2023-08-12T06:02:32;21.00;99.90
2447;DHT22;26430;48.818;9.244;2023-08-12T06:04:58;21.00;99.90
2447;DHT22;26430;48.818;9.244;2023-08-12T06:07:23;20.90;99.90
2447;DHT22;26430;48.818;9.244;2023-08-12T06:09:49;20.90;99.90
2447;DHT22;26430;48.818;9.244;2023-08-12T06:12:16;21.10;99.90
2447;DHT22;26430;48.818;9.244;2023-08-12T06:14:41;21.20;99.90
2447;DHT22;26430;48.818;9.244;2023-08-12T06:17:07;21.30;99.90
2447;DHT22;26430;48.818;9.244;2023-08-12T06:19:33;21.60;99.90
2447;DHT22;26430;48.818;9.244;2023-08-12T06:21:58;21.50;99.90
2447;DHT22;26430;48.818;9.244;2023-08-12T06:24:24;21.10;99.90
2447;DHT22;26430;48.818;9.244;2023-08-12T06:26:50;20.80;99.90
2447;DHT22;26430;48.818;9.244;2023-08-12T06:29:15;20.80;99.90
2447;DHT22;26430;48.818;9.244;2023-08-12T06:31:41;21.00;99.90
2447;DHT22;26430;48.818;9.244;2023-08-12T06:34:07;21.00;99.90
2447;DHT22;26430;48.818;9.244;2023-08-12T06:36:32;21.20;99.90
2447;DHT22;26430;48.818;9.244;2023-08-12T06:38:58;21.10;99.90
2447;DHT22;26430;48.818;9.244;2023-08-12T06:41:24;21.20;99.90
2447;DHT22;26430;48.818;9.244;2023-08-12T06:43:49;21.30;99.90
2447;DHT22;26430;48.818;9.244;2023-08-12T06:46:15;21.00;99.90
2447;DHT22;26430;48.818;9.244;2023-08-12T06:48:41;20.90;99.90
2447;DHT22;26430;48.818;9.244;2023-08-12T06:51:06;20.90;99.90
2447;DHT22;26430;48.818;9.244;2023-08-12T06:53:40;21.10;99.90
2447;DHT22;26430;48.818;9.244;2023-08-12T06:56:06;21.00;99.90
2447;DHT22;26430;48.818;9.244;2023-08-12T06:58:32;21.00;99.90
2447;DHT22;26430;48.818;9.244;2023-08-12T07:00:57;21.20;99.90
2447;DHT22;26430;48.818;9.244;2023-08-12T07:03:24;21.30;99.90
2447;DHT22;26430;48.818;9.244;2023-08-12T07:05:50;21.30;99.90
2447;DHT22;26430;48.818;9.244;2023-08-12T07:08:15;21.40;99.90
2447;DHT22;26430;48.818;9.244;2023-08-12T07:10:41;21.50;99.90
2447;DHT22;26430;48.818;9.244;2023-08-12T07:13:07;21.70;99.90
2447;DHT22;26430;48.818;9.244;2023-08-12T07:15:33;21.90;99.90
2447;DHT22;26430;48.818;9.244;2023-08-12T07:17:59;22.00;99.90
2447;DHT22;26430;48.818;9.244;2023-08-12T07:20:25;22.00;99.90
2447;DHT22;26430;48.818;9.244;2023-08-12T07:22:51;22.00;99.90
2447;DHT22;26430;48.818;9.244;2023-08-12T07:25:16;21.90;99.90
2447;DHT22;26430;48.818;9.244;2023-08-12T07:27:42;22.10;99.90
2447;DHT22;26430;48.818;9.244;2023-08-12T07:30:08;22.10;99.90
2447;DHT22;26430;48.818;9.244;2023-08-12T07:32:35;22.10;99.90
2447;DHT22;26430;48.818;9.244;2023-08-12T07:35:01;22.20;99.90
2447;DHT22;26430;48.818;9.244;2023-08-12T07:37:27;22.20;99.90
2447;DHT22;26430;48.818;9.244;2023-08-12T07:39:52;22.30;99.90
2447;DHT22;26430;48.818;9.244;2023-08-12T07:42:18;22.40;99.90
2447;DHT22;26430;48.818;9.244;2023-08-12T07:44:43;22.50;99.90
2447;DHT22;26430;48.818;9.244;2023-08-12T07:47:09;22.60;99.90
2447;DHT22;26430;48.818;9.244;2023-08-12T07:49:35;22.80;99.90
2447;DHT22;26430;48.818;9.244;2023-08-12T07:52:00;23.00;99.90
2447;DHT22;26430;48.818;9.244;2023-08-12T07:54:26;23.20;99.90
2447;DHT22;26430;48.818;9.244;2023-08-12T07:56:52;23.30;99.90
2447;DHT22;26430;48.818;9.244;2023-08-12T07:59:20;23.40;99.90
2447;DHT22;26430;48.818;9.244;2023-08-12T08:01:46;23.50;99.90
2447;DHT22;26430;48.818;9.244;2023-08-12T08:04:12;23.70;99.90
2447;DHT22;26430;48.818;9.244;2023-08-12T08:06:37;23.90;99.90
2447;DHT22;26430;48.818;9.244;2023-08-12T08:09:03;24.00;99.90
2447;DHT22;26430;48.818;9.244;2023-08-12T08:11:30;24.00;99.90
2447;DHT22;26430;48.818;9.244;2023-08-12T08:13:57;24.00;99.90
2447;DHT22;26430;48.818;9.244;2023-08-12T08:16:23;24.00;99.90
2447;DHT22;26430;48.818;9.244;2023-08-12T08:18:49;24.00;99.90
2447;DHT22;26430;48.818;9.244;2023-08-12T08:21:15;24.10;99.90
2447;DHT22;26430;48.818;9.244;2023-08-12T08:23:41;24.20;99.90
2447;DHT22;26430;48.818;9.244;2023-08-12T08:26:08;24.40;99.90
2447;DHT22;26430;48.818;9.244;2023-08-12T08:28:33;24.50;99.90
2447;DHT22;26430;48.818;9.244;2023-08-12T08:30:59;24.60;99.90
2447;DHT22;26430;48.818;9.244;2023-08-12T08:33:25;24.80;99.90
2447;DHT22;26430;48.818;9.244;2023-08-12T08:35:51;25.00;99.90
2447;DHT22;26430;48.818;9.244;2023-08-12T08:38:17;25.10;99.90
2447;DHT22;26430;48.818;9.244;2023-08-12T08:40:43;25.00;99.90
2447;DHT22;26430;48.818;9.244;2023-08-12T08:43:09;25.10;99.90
2447;DHT22;26430;48.818;9.244;2023-08-12T08:45:34;25.10;99.90
2447;DHT22;26430;48.818;9.244;2023-08-12T08:48:01;25.20;99.90
2447;DHT22;26430;48.818;9.244;2023-08-12T08:50:30;25.30;99.90
2447;DHT22;26430;48.818;9.244;2023-08-12T08:52:57;25.50;99.90
2447;DHT22;26430;48.818;9.244;2023-08-12T08:55:22;25.60;99.90
2447;DHT22;26430;48.818;9.244;2023-08-12T08:57:49;25.80;99.90
2447;DHT22;26430;48.818;9.244;2023-08-12T09:00:16;25.70;99.90
2447;DHT22;26430;48.818;9.244;2023-08-12T09:02:53;25.80;99.90
2447;DHT22;26430;48.818;9.244;2023-08-12T09:05:20;25.90;99.90
2447;DHT22;26430;48.818;9.244;2023-08-12T09:07:46;26.20;99.90
2447;DHT22;26430;48.818;9.244;2023-08-12T09:10:12;26.20;99.90
2447;DHT22;26430;48.818;9.244;2023-08-12T09:12:38;26.10;99.90
2447;DHT22;26430;48.818;9.244;2023-08-12T09:15:05;26.10;99.90
2447;DHT22;26430;48.818;9.244;2023-08-12T09:17:32;26.20;99.90
2447;DHT22;26430;48.818;9.244;2023-08-12T09:19:58;26.30;99.90
2447;DHT22;26430;48.818;9.244;2023-08-12T09:22:25;26.50;99.90
2447;DHT22;26430;48.818;9.244;2023-08-12T09:24:56;26.70;99.90
2447;DHT22;26430;48.818;9.244;2023-08-12T09:27:22;26.80;99.90
2447;DHT22;26430;48.818;9.244;2023-08-12T09:29:47;26.80;99.90
2447;DHT22;26430;48.818;9.244;2023-08-12T09:32:17;27.00;99.90
2447;DHT22;26430;48.818;9.244;2023-08-12T09:35:01;27.10;99.90
2447;DHT22;26430;48.818;9.244;2023-08-12T09:37:31;27.40;99.90
2447;DHT22;26430;48.818;9.244;2023-08-12T09:39:57;27.60;99.90
2447;DHT22;26430;48.818;9.244;2023-08-12T09:42:23;27.60;99.90
2447;DHT22;26430;48.818;9.244;2023-08-12T09:44:49;27.50;99.90
2447;DHT22;26430;48.818;9.244;2023-08-12T09:47:14;27.70;99.90
2447;DHT22;26430;48.818;9.244;2023-08-12T09:49:40;27.80;99.90
2447;DHT22;26430;48.818;9.244;2023-08-12T09:52:07;28.10;99.90
2447;DHT22;26430;48.818;9.244;2023-08-12T09:54:33;28.10;99.90
2447;DHT22;26430;48.818;9.244;2023-08-12T09:57:00;28.10;99.90
2447;DHT22;26430;48.818;9.244;2023-08-12T09:59:35;28.50;99.90
2447;DHT22;26430;48.818;9.244;2023-08-12T10:02:03;28.70;99.90
2447;DHT22;26430;48.818;9.244;2023-08-12T10:04:41;28.80;99.90
2447;DHT22;26430;48.818;9.244;2023-08-12T10:07:10;28.80;99.90
2447;DHT22;26430;48.818;9.244;2023-08-12T10:09:39;28.90;99.90
2447;DHT22;26430;48.818;9.244;2023-08-12T10:12:06;28.80;99.90
2447;DHT22;26430;48.818;9.244;2023-08-12T10:14:32;28.70;99.90
2447;DHT22;26430;48.818;9.244;2023-08-12T10:16:58;28.50;99.90
2447;DHT22;26430;48.818;9.244;2023-08-12T10:19:24;28.20;99.90
2447;DHT22;26430;48.818;9.244;2023-08-12T10:21:54;27.90;99.90
2447;DHT22;26430;48.818;9.244;2023-08-12T10:24:20;27.90;99.90
2447;DHT22;26430;48.818;9.244;2023-08-12T10:26:46;27.90;99.90
2447;DHT22;26430;48.818;9.244;2023-08-12T10:29:12;28.00;99.90
2447;DHT22;26430;48.818;9.244;2023-08-12T10:31:38;28.00;99.90
2447;DHT22;26430;48.818;9.244;2023-08-12T10:34:05;28.00;99.90
2447;DHT22;26430;48.818;9.244;2023-08-12T10:36:31;28.10;99.90
2447;DHT22;26430;48.818;9.244;2023-08-12T10:38:57;28.10;99.90
2447;DHT22;26430;48.818;9.244;2023-08-12T10:41:24;28.20;99.90
2447;DHT22;26430;48.818;9.244;2023-08-12T10:43:58;28.30;99.90
2447;DHT22;26430;48.818;9.244;2023-08-12T10:46:37;28.60;99.90
2447;DHT22;26430;48.818;9.244;2023-08-12T10:51:58;29.10;99.90
2447;DHT22;26430;48.818;9.244;2023-08-12T10:54:28;29.10;99.90
2447;DHT22;26430;48.818;9.244;2023-08-12T11:02:32;28.80;99.90
2447;DHT22;26430;48.818;9.244;2023-08-12T11:05:09;28.80;99.90
2447;DHT22;26430;48.818;9.244;2023-08-12T11:10:18;29.00;99.90
2447;DHT22;26430;48.818;9.244;2023-08-12T11:15:18;29.40;99.90
2447;DHT22;26430;48.818;9.244;2023-08-12T11:17:46;29.80;99.90
2447;DHT22;26430;48.818;9.244;2023-08-12T11:20:13;29.80;99.90
2447;DHT22;26430;48.818;9.244;2023-08-12T11:22:40;29.90;99.90
2447;DHT22;26430;48.818;9.244;2023-08-12T11:25:11;30.10;99.90
2447;DHT22;26430;48.818;9.244;2023-08-12T11:27:38;30.10;99.90
2447;DHT22;26430;48.818;9.244;2023-08-12T11:30:04;30.10;99.90
2447;DHT22;26430;48.818;9.244;2023-08-12T11:32:30;30.00;99.90
2447;DHT22;26430;48.818;9.244;2023-08-12T11:34:55;29.50;99.90
2447;DHT22;26430;48.818;9.244;2023-08-12T11:37:21;29.40;99.90
2447;DHT22;26430;48.818;9.244;2023-08-12T11:39:47;29.50;99.90
2447;DHT22;26430;48.818;9.244;2023-08-12T11:42:12;29.60;99.90
2447;DHT22;26430;48.818;9.244;2023-08-12T11:44:40;30.10;99.90
2447;DHT22;26430;48.818;9.244;2023-08-12T11:47:07;30.40;99.90
2447;DHT22;26430;48.818;9.244;2023-08-12T11:49:32;30.50;99.90
2447;DHT22;26430;48.818;9.244;2023-08-12T11:51:58;30.70;99.90
2447;DHT22;26430;48.818;9.244;2023-08-12T11:54:24;31.20;99.90
2447;DHT22;26430;48.818;9.244;2023-08-12T11:56:51;30.90;99.90
2447;DHT22;26430;48.818;9.244;2023-08-12T11:59:17;30.40;99.90
2447;DHT22;26430;48.818;9.244;2023-08-12T12:01:46;30.30;99.90
2447;DHT22;26430;48.818;9.244;2023-08-12T12:04:14;30.00;99.90
2447;DHT22;26430;48.818;9.244;2023-08-12T12:06:40;29.90;99.90
2447;DHT22;26430;48.818;9.244;2023-08-12T12:09:07;29.30;99.90
2447;DHT22;26430;48.818;9.244;2023-08-12T12:11:36;28.10;99.90
2447;DHT22;26430;48.818;9.244;2023-08-12T12:14:05;27.30;99.90
2447;DHT22;26430;48.818;9.244;2023-08-12T12:16:41;27.00;99.90
2447;DHT22;26430;48.818;9.244;2023-08-12T12:19:23;27.00;99.90
2447;DHT22;26430;48.818;9.244;2023-08-12T12:21:53;27.00;99.90
2447;DHT22;26430;48.818;9.244;2023-08-12T12:24:19;26.30;99.90
2447;DHT22;26430;48.818;9.244;2023-08-12T12:26:46;25.70;99.90
2447;DHT22;26430;48.818;9.244;2023-08-12T12:29:12;25.60;99.90
2447;DHT22;26430;48.818;9.244;2023-08-12T12:31:39;25.60;99.90
2447;DHT22;26430;48.818;9.244;2023-08-12T12:34:05;25.50;99.90
2447;DHT22;26430;48.818;9.244;2023-08-12T12:36:32;25.50;99.90
2447;DHT22;26430;48.818;9.244;2023-08-12T12:38:57;25.30;99.90
2447;DHT22;26430;48.818;9.244;2023-08-12T12:41:23;25.20;99.90
2447;DHT22;26430;48.818;9.244;2023-08-12T12:43:48;25.00;99.90
2447;DHT22;26430;48.818;9.244;2023-08-12T12:46:15;24.90;99.90
2447;DHT22;26430;48.818;9.244;2023-08-12T12:48:42;25.00;99.90
2447;DHT22;26430;48.818;9.244;2023-08-12T12:51:07;24.70;99.90
2447;DHT22;26430;48.818;9.244;2023-08-12T12:53:33;24.40;99.90
2447;DHT22;26430;48.818;9.244;2023-08-12T12:55:58;23.90;99.90
2447;DHT22;26430;48.818;9.244;2023-08-12T12:58:32;24.00;99.90
2447;DHT22;26430;48.818;9.244;2023-08-12T13:01:02;24.10;99.90
2447;DHT22;26430;48.818;9.244;2023-08-12T13:03:30;23.90;99.90
2447;DHT22;26430;48.818;9.244;2023-08-12T13:05:56;23.60;99.90
2447;DHT22;26430;48.818;9.244;2023-08-12T13:08:22;23.70;99.90
2447;DHT22;26430;48.818;9.244;2023-08-12T13:10:47;23.80;99.90
2447;DHT22;26430;48.818;9.244;2023-08-12T13:13:14;23.80;99.90
2447;DHT22;26430;48.818;9.244;2023-08-12T13:15:44;23.70;99.90
2447;DHT22;26430;48.818;9.244;2023-08-12T13:18:11;23.50;99.90
2447;DHT22;26430;48.818;9.244;2023-08-12T13:20:37;23.50;99.90
2447;DHT22;26430;48.818;9.244;2023-08-12T13:23:03;23.60;99.90
2447;DHT22;26430;48.818;9.244;2023-08-12T13:25:31;23.70;99.90
2447;DHT22;26430;48.818;9.244;2023-08-12T13:27:58;23.50;99.90
2447;DHT22;26430;48.818;9.244;2023-08-12T13:30:23;23.50;99.90
2447;DHT22;26430;48.818;9.244;2023-08-12T13:32:49;23.60;99.90
2447;DHT22;26430;48.818;9.244;2023-08-12T13:35:15;23.70;99.90
2447;DHT22;26430;48.818;9.244;2023-08-12T13:37:40;23.70;99.90
2447;DHT22;26430;48.818;9.244;2023-08-12T13:40:06;23.80;99.90
2447;DHT22;26430;48.818;9.244;2023-08-12T13:42:32;24.00;99.90
2447;DHT22;26430;48.818;9.244;2023-08-12T13:44:57;24.20;99.90
2447;DHT22;26430;48.818;9.244;2023-08-12T13:47:23;24.20;99.90
2447;DHT22;26430;48.818;9.244;2023-08-12T13:49:48;24.30;99.90
2447;DHT22;26430;48.818;9.244;2023-08-12T13:52:15;24.30;99.90
2447;DHT22;26430;48.818;9.244;2023-08-12T13:54:40;24.30;99.90
2447;DHT22;26430;48.818;9.244;2023-08-12T13:57:06;24.60;99.90
2447;DHT22;26430;48.818;9.244;2023-08-12T13:59:31;24.90;99.90
2447;DHT22;26430;48.818;9.244;2023-08-12T14:01:57;25.00;99.90
2447;DHT22;26430;48.818;9.244;2023-08-12T14:04:22;25.20;99.90
2447;DHT22;26430;48.818;9.244;2023-08-12T14:06:49;25.50;99.90
2447;DHT22;26430;48.818;9.244;2023-08-12T14:09:14;25.50;99.90
2447;DHT22;26430;48.818;9.244;2023-08-12T14:11:42;25.80;99.90
2447;DHT22;26430;48.818;9.244;2023-08-12T14:14:08;25.90;99.90
2447;DHT22;26430;48.818;9.244;2023-08-12T14:16:34;26.00;99.90
2447;DHT22;26430;48.818;9.244;2023-08-12T14:19:00;26.20;99.90
2447;DHT22;26430;48.818;9.244;2023-08-12T14:21:25;25.90;99.90
2447;DHT22;26430;48.818;9.244;2023-08-12T14:23:51;26.20;99.90
2447;DHT22;26430;48.818;9.244;2023-08-12T14:26:16;26.30;99.90
2447;DHT22;26430;48.818;9.244;2023-08-12T14:28:42;26.20;99.90
2447;DHT22;26430;48.818;9.244;2023-08-12T14:31:07;26.20;99.90
2447;DHT22;26430;48.818;9.244;2023-08-12T14:33:33;26.20;99.90
2447;DHT22;26430;48.818;9.244;2023-08-12T14:35:59;26.50;99.90
2447;DHT22;26430;48.818;9.244;2023-08-12T14:38:25;26.70;99.90
2447;DHT22;26430;48.818;9.244;2023-08-12T14:40:50;26.80;99.90
2447;DHT22;26430;48.818;9.244;2023-08-12T14:43:16;27.00;99.90
2447;DHT22;26430;48.818;9.244;2023-08-12T14:45:45;27.10;99.90
2447;DHT22;26430;48.818;9.244;2023-08-12T14:48:13;27.00;99.90
2447;DHT22;26430;48.818;9.244;2023-08-12T14:50:40;26.80;99.90
2447;DHT22;26430;48.818;9.244;2023-08-12T14:53:07;26.80;99.90
2447;DHT22;26430;48.818;9.244;2023-08-12T14:55:32;27.00;99.90
2447;DHT22;26430;48.818;9.244;2023-08-12T14:57:58;27.10;99.90
2447;DHT22;26430;48.818;9.244;2023-08-12T15:00:24;27.10;99.90
2447;DHT22;26430;48.818;9.244;2023-08-12T15:02:49;27.20;99.90
2447;DHT22;26430;48.818;9.244;2023-08-12T15:05:15;27.40;99.90
2447;DHT22;26430;48.818;9.244;2023-08-12T15:07:41;27.40;99.90
2447;DHT22;26430;48.818;9.244;2023-08-12T15:10:07;27.40;99.90
2447;DHT22;26430;48.818;9.244;2023-08-12T15:12:34;27.40;99.90
2447;DHT22;26430;48.818;9.244;2023-08-12T15:14:59;27.50;99.90
2447;DHT22;26430;48.818;9.244;2023-08-12T15:17:25;27.50;99.90
2447;DHT22;26430;48.818;9.244;2023-08-12T15:19:51;27.70;99.90
2447;DHT22;26430;48.818;9.244;2023-08-12T15:22:16;27.80;99.90
2447;DHT22;26430;48.818;9.244;2023-08-12T15:24:42;27.70;99.90
2447;DHT22;26430;48.818;9.244;2023-08-12T15:27:08;27.60;99.90
2447;DHT22;26430;48.818;9.244;2023-08-12T15:29:34;27.40;99.90
2447;DHT22;26430;48.818;9.244;2023-08-12T15:31:59;27.30;99.90
2447;DHT22;26430;48.818;9.244;2023-08-12T15:34:25;27.30;99.90
2447;DHT22;26430;48.818;9.244;2023-08-12T15:36:52;27.10;99.90
2447;DHT22;26430;48.818;9.244;2023-08-12T15:39:18;27.00;99.90
2447;DHT22;26430;48.818;9.244;2023-08-12T15:41:44;26.90;99.90
2447;DHT22;26430;48.818;9.244;2023-08-12T15:44:11;26.80;99.90
2447;DHT22;26430;48.818;9.244;2023-08-12T15:46:36;26.70;99.90
2447;DHT22;26430;48.818;9.244;2023-08-12T15:49:03;26.60;99.90
2447;DHT22;26430;48.818;9.244;2023-08-12T15:51:30;26.50;99.90
2447;DHT22;26430;48.818;9.244;2023-08-12T15:53:56;26.50;99.90
2447;DHT22;26430;48.818;9.244;2023-08-12T15:56:21;26.50;99.90
2447;DHT22;26430;48.818;9.244;2023-08-12T15:58:47;26.40;99.90